ADDS METAR Data INFO
IDs: Format: Raw Decoded Include TAF

Data at: 0837 UTC 27 Jun 2017

KERV 270815Z AUTO 00000KT 10SM OVC110 21/20 A3006 RMK AO2 T02050198
KERV 270755Z AUTO 00000KT 10SM BKN120 21/20 A3006 RMK AO2 P0001 T02050198
KERV 270735Z AUTO 00000KT 10SM BKN120 21/20 A3006 RMK AO2 T02050198
KERV 270715Z AUTO 00000KT 10SM CLR 21/20 A3006 RMK AO2 LTG DSNT W T02050198
KERV 270655Z AUTO 20003KT 10SM CLR 21/20 A3006 RMK AO2 T02050197
KERV 270635Z AUTO 35006KT 10SM -DZ CLR 21/20 A3006 RMK AO2 T02050198
KERV 270615Z AUTO 07004KT 10SM -RA SCT120 21/20 A3005 RMK AO2 T02050198
KERV 270555Z AUTO 13013KT 7SM -RA SCT060 BKN095 OVC120 21/20 A3005 RMK AO2 P0016 60200 T02050198 10275 20205 403310205
KERV 270535Z AUTO 13011G14KT 5SM RA SCT048 BKN070 OVC095 22/21 A3008 RMK AO2 P0013 T02190212
KERV 270515Z AUTO 11012G16KT 5SM RA SCT033 BKN065 OVC070 21/21 A3011 RMK AO2 P0006 T02140207
KERV 270455Z AUTO 11008KT 3SM +RA SCT025 BKN035 OVC049 21/20 A3012 RMK AO2 P0112 T02050198
KERV 270435Z AUTO 10006KT 1 3/4SM +TSRA SCT008 BKN016 OVC024 21/20 A3012 RMK AO2 LTG DSNT ALQS P0093 T02050198
KERV 270415Z AUTO 32004KT 3/4SM +TSRA BKN004 OVC010 21/20 A3013 RMK AO2 LTG DSNT ALQS P0058 T02050198
KERV 270355Z AUTO 02008G14KT 3/4SM +VCTSRA OVC010 21/20 A3012 RMK AO2 LTG DSNT ALQS P0066 T02050195
KERV 270335Z AUTO 34008KT 5SM RA OVC024 23/22 A3010 RMK AO2 LTG DSNT W THRU NE P0005 T02280217
KERV 270315Z AUTO 10003KT 10SM RA OVC026 23/22 A3008 RMK AO2 LTG DSNT W THRU NE P0002 T02330215
KERV 270255Z AUTO 14003KT 10SM VCTSRA SCT024 BKN036 OVC080 24/22 A3007 RMK AO2 LTG DSNT W THRU NE T02410221
KERV 270235Z AUTO 13005KT 10SM -VCTSDZ SCT070 BKN090 BKN120 25/23 A3006 RMK AO2 LTG DSNT SW AND W T02470227
KERV 270215Z AUTO 15008KT 10SM -RA SCT060 BKN085 OVC110 25/23 A3005 RMK AO2 LTG DSNT W THRU NE T02470226
KERV 270155Z AUTO 13004KT 10SM SCT060 SCT095 BKN110 25/21 A3005 RMK AO2 LTG DSNT N AND SW T02480207
KERV 270135Z AUTO 12005KT 10SM BKN095 25/21 A3004 RMK AO2 LTG DSNT N AND SW T02540212
KERV 270115Z AUTO 10008KT 10SM BKN095 26/22 A3004 RMK AO2 LTG DSNT N AND SW T02610217
KERV 270055Z AUTO 10008KT 10SM SCT110 26/22 A3003 RMK AO2 LTG DSNT N AND SW T02610217
KERV 270035Z AUTO 09007KT 10SM SCT110 26/22 A3004 RMK AO2 LTG DSNT N T02610215
KERV 270015Z AUTO 07008KT 10SM CLR 27/21 A3003 RMK AO2 LTG DSNT SW AND NW T02680213
KERV 262355Z AUTO 10010G17KT 10SM SCT048 SCT055 28/21 A3003 RMK AO2 LTG DSNT SE SW AND NW T02750205 10331 20275
KERV 262335Z AUTO 11012G16KT 10SM VCTS SCT048 BKN055 29/21 A3002 RMK AO2 LTG DSNT SW AND NW T02850211
KERV 262315Z AUTO 11007KT 10SM CLR 30/19 A3001 RMK AO2 T02990188
KERV 262255Z AUTO 11009KT 10SM CLR 30/18 A3002 RMK AO2 T03000178
KERV 262235Z AUTO 10009KT 10SM CLR 30/20 A3002 RMK AO2 T03030195
KERV 262215Z AUTO 14010KT 10SM CLR 31/20 A3002 RMK AO2 T03130200
KERV 262155Z AUTO 11008KT 10SM SCT100 30/20 A3003 RMK AO2 T03030201
KERV 262135Z AUTO 12007KT 10SM BKN100 31/21 A3004 RMK AO2 LTG DSNT W T03140210
KERV 262115Z AUTO 10012G15KT 10SM SCT065 SCT110 32/21 A3004 RMK AO2 T03170208
KERV 262055Z AUTO 11009G15KT 10SM SCT050 SCT065 32/21 A3005 RMK AO2 T03230208
KERV 262035Z AUTO 12006KT 10SM SCT110 33/20 A3005 RMK AO2 T03290201
KERV 262015Z AUTO 10007KT 10SM SCT110 32/20 A3006 RMK AO2 T03170198
KERV 261955Z AUTO 05006KT 10SM SCT048 BKN100 32/20 A3007 RMK AO2 T03170201
KERV 261935Z AUTO 08006KT 10SM OVC100 30/20 A3008 RMK AO2 T03010195
KERV 261915Z AUTO 00000KT 10SM BKN090 30/20 A3009 RMK AO2 T03030197
KERV 261855Z AUTO 00000KT 10SM SCT070 OVC090 30/20 A3011 RMK AO2 T02980198
KERV 261835Z AUTO 08004KT 10SM SCT070 OVC090 29/20 A3012 RMK AO2 T02910200
KERV 261815Z AUTO 11003KT 10SM OVC070 28/21 A3012 RMK AO2 T02800213
KERV 261755Z AUTO 12005KT 10SM SCT031 SCT043 OVC070 28/22 A3013 RMK AO2 T02750219 10292 20220
KERV 261735Z AUTO 11007KT 7SM -RA SCT031 BKN046 OVC070 26/22 A3014 RMK AO2 T02600220
KERV 261715Z AUTO 13006KT 10SM -RA SCT037 BKN047 BKN055 28/21 A3014 RMK AO2 T02790205
KERV 261655Z AUTO 18004KT 10SM BKN037 BKN045 29/20 A3014 RMK AO2 T02910201
KERV 261635Z AUTO 13007KT 10SM SCT039 29/20 A3015 RMK AO2 T02910201
KERV 261615Z AUTO 01004KT 10SM SCT060 SCT070 28/20 A3015 RMK AO2 T02780203
KERV 261555Z AUTO 13004KT 10SM SCT039 SCT048 BKN060 28/21 A3016 RMK AO2 T02750205
KERV 261535Z AUTO 13003KT 10SM SCT024 BKN029 BKN039 27/21 A3016 RMK AO2 T02680209
KERV 261515Z AUTO 17003KT 10SM BKN023 OVC030 28/22 A3016 RMK AO2 T02750221
KERV 261455Z AUTO 00000KT 10SM BKN021 BKN026 BKN034 27/22 A3017 RMK AO2 T02660216
KERV 261435Z AUTO 04003KT 10SM SCT027 26/22 A3017 RMK AO2 T02550218
KERV 261415Z AUTO 13004KT 10SM BKN029 BKN033 25/22 A3017 RMK AO2 T02500218
KERV 261355Z AUTO 17003KT 10SM SCT014 23/21 A3017 RMK AO2 T02330212
KERV 261335Z AUTO 00000KT 10SM BKN014 23/22 A3017 RMK AO2 T02330217
KERV 261315Z AUTO 00000KT 10SM SCT010 BKN016 23/21 A3017 RMK AO2 T02260213
KERV 261255Z AUTO 11003KT 10SM BKN010 23/21 A3016 RMK AO2 T02260213
KERV 261235Z AUTO 12003KT 10SM BKN010 22/21 A3016 RMK AO2 T02200208
KERV 261215Z AUTO 11004KT 10SM BKN010 OVC015 22/21 A3015 RMK AO2 T02200208
KERV 261155Z AUTO 00000KT 10SM BKN010 BKN015 22/21 A3014 RMK AO2 T02200210 10233 20220
KERV 261135Z AUTO 00000KT 10SM BKN010 BKN015 22/21 A3014 RMK AO2 T02200208
KERV 261115Z AUTO 00000KT 10SM BKN013 22/21 A3014 RMK AO2 T02200208
KERV 261055Z AUTO 00000KT 10SM OVC010 22/21 A3014 RMK AO2 T02200208
KERV 261035Z AUTO 00000KT 10SM OVC010 22/21 A3014 RMK AO2 T02200208
KERV 261015Z AUTO 00000KT 10SM OVC010 22/21 A3014 RMK AO2 T02200208
KERV 260955Z AUTO 00000KT 10SM SCT010 OVC017 22/21 A3014 RMK AO2 T02200207
KERV 260935Z AUTO 00000KT 10SM OVC013 22/21 A3015 RMK AO2 T02200205
KERV 260915Z AUTO 00000KT 10SM OVC011 22/21 A3015 RMK AO2 T02200207
KERV 260855Z AUTO 00000KT 10SM OVC011 22/21 A3016 RMK AO2 T02200207
KERV 260835Z AUTO 00000KT 10SM BKN013 22/21 A3016 RMK AO2 T02200208
KERV 260815Z AUTO 00000KT 10SM SCT013 22/21 A3016 RMK AO2 T02200208
KERV 260755Z AUTO 13003KT 10SM CLR 22/21 A3016 RMK AO2 T02200208
KERV 260735Z AUTO 11003KT 10SM CLR 22/21 A3017 RMK AO2 T02200207
KERV 260715Z AUTO 00000KT 10SM SCT021 SCT027 SCT041 22/21 A3016 RMK AO2 T02240211
KERV 260655Z AUTO 11004KT 10SM SCT041 SCT070 23/21 A3016 RMK AO2 T02260213
KERV 260635Z AUTO 11005KT 10SM SCT014 SCT070 23/22 A3016 RMK AO2 T02330220
KERV 260615Z AUTO 11004KT 10SM SCT014 23/22 A3015 RMK AO2 T02330220
KERV 260555Z AUTO 12004KT 10SM BKN014 BKN080 23/22 A3015 RMK AO2 T02330217 10275 20233 403310190
KERV 260535Z AUTO 10005KT 10SM SCT016 SCT045 OVC080 25/23 A3015 RMK AO2 T02470228
KERV 260515Z AUTO 10004KT 10SM SCT028 SCT044 BKN080 25/23 A3016 RMK AO2 T02470227
KERV 260455Z AUTO 10005KT 10SM SCT021 SCT028 OVC041 25/23 A3017 RMK AO2 T02470225
KERV 260435Z AUTO 09004KT 10SM SCT035 BKN041 OVC075 25/22 A3016 RMK AO2 T02470220
KERV 260415Z AUTO 10005KT 10SM SCT035 SCT048 OVC065 25/22 A3015 RMK AO2 T02470220
KERV 260355Z AUTO 11004KT 10SM SCT037 SCT055 BKN065 25/22 A3015 RMK AO2 T02470220
KERV 260335Z AUTO 00000KT 10SM SCT034 SCT042 BKN055 25/22 A3014 RMK AO2 T02470218
KERV 260315Z AUTO 08003KT 10SM BKN034 OVC042 25/22 A3014 RMK AO2 T02470218
KERV 260255Z AUTO 00000KT 10SM BKN034 25/22 A3013 RMK AO2 T02470218
KERV 260235Z AUTO 13004KT 10SM CLR 25/22 A3012 RMK AO2 T02470217
KERV 260215Z AUTO 11004KT 10SM CLR 25/22 A3011 RMK AO2 T02470216
KERV 260155Z AUTO 12004KT 10SM CLR 26/22 A3012 RMK AO2 T02610223
KERV 260135Z AUTO 12004KT 10SM CLR 26/22 A3012 RMK AO2 T02610217
KERV 260115Z AUTO 13007KT 10SM CLR 27/22 A3012 RMK AO2 T02720222
KERV 260055Z AUTO 12008KT 10SM CLR 28/22 A3012 RMK AO2 T02750220
KERV 260035Z AUTO 13009KT 10SM CLR 28/22 A3012 RMK AO2 T02750223
KERV 260015Z AUTO 12010KT 10SM CLR 28/22 A3012 RMK AO2 T02750217
KERV 252355Z AUTO 12010KT 10SM SCT060 SCT080 28/22 A3012 RMK AO2 T02750223 10331 20275
KERV 252335Z AUTO 11011KT 10SM SCT065 28/22 A3012 RMK AO2 T02750219
KERV 252315Z AUTO 10012KT 10SM CLR 28/22 A3012 RMK AO2 T02750222
KERV 252255Z AUTO 11016G19KT 4SM HZ CLR 29/22 A3012 RMK AO2 T02900215
KERV 252235Z AUTO 11012G17KT 10SM SCT090 29/21 A3012 RMK AO2 T02890207
KERV 252215Z AUTO 07009KT 10SM SCT090 SCT110 33/20 A3012 RMK AO2 T03250201
KERV 252155Z AUTO 07008KT 10SM SCT060 SCT080 BKN110 33/20 A3012 RMK AO2 T03310200
KERV 252135Z AUTO 06005KT 10SM SCT070 SCT100 33/19 A3012 RMK AO2 T03310191
KERV 252115Z AUTO 07010G14KT 030V100 10SM SCT055 SCT100 31/19 A3013 RMK AO2 T03140193
KERV 252055Z AUTO 02006G09KT 10SM CLR 33/20 A3013 RMK AO2 T03300197


Page loaded:  08:37 UTC  |   01:37 AM Pacific  |   02:37 AM Mountain  |   03:37 AM Central  |   04:37 AM Eastern

 

ADVISORIES

FORECASTS

FORECASTS

OBSERVATIONS

USER TOOLS

ABOUT US